sensor_id;sensor_type;location;lat;lon;timestamp;pressure;altitude;pressure_sealevel;temperature;humidity
63554;BME280;49699;48.072;7.800;2023-03-31T00:00:30;98898.28;;;13.50;58.73
63554;BME280;49699;48.072;7.800;2023-03-31T00:02:56;98890.44;;;13.50;58.77
63554;BME280;49699;48.072;7.800;2023-03-31T00:05:22;98884.41;;;13.50;58.88
63554;BME280;49699;48.072;7.800;2023-03-31T00:07:52;98879.16;;;13.50;58.70
63554;BME280;49699;48.072;7.800;2023-03-31T00:10:17;98882.63;;;13.50;58.42
63554;BME280;49699;48.072;7.800;2023-03-31T00:12:43;98882.38;;;13.53;58.44
63554;BME280;49699;48.072;7.800;2023-03-31T00:15:09;98871.91;;;13.53;58.39
63554;BME280;49699;48.072;7.800;2023-03-31T00:17:35;98869.19;;;13.55;58.37
63554;BME280;49699;48.072;7.800;2023-03-31T00:20:00;98869.91;;;13.57;58.10
63554;BME280;49699;48.072;7.800;2023-03-31T00:22:29;98881.06;;;13.59;58.03
63554;BME280;49699;48.072;7.800;2023-03-31T00:24:55;98878.47;;;13.59;58.04
63554;BME280;49699;48.072;7.800;2023-03-31T00:27:20;98881.78;;;13.61;57.88
63554;BME280;49699;48.072;7.800;2023-03-31T00:29:45;98883.31;;;13.64;57.53
63554;BME280;49699;48.072;7.800;2023-03-31T00:32:11;98882.94;;;13.68;57.20
63554;BME280;49699;48.072;7.800;2023-03-31T00:34:38;98905.31;;;13.72;56.92
63554;BME280;49699;48.072;7.800;2023-03-31T00:37:04;98891.03;;;13.76;56.91
63554;BME280;49699;48.072;7.800;2023-03-31T00:39:30;98902.31;;;13.77;56.77
63554;BME280;49699;48.072;7.800;2023-03-31T00:42:03;98906.59;;;13.78;56.67
63554;BME280;49699;48.072;7.800;2023-03-31T00:44:28;98918.03;;;13.77;56.56
63554;BME280;49699;48.072;7.800;2023-03-31T00:46:56;98917.19;;;13.76;56.23
63554;BME280;49699;48.072;7.800;2023-03-31T00:51:49;98911.72;;;13.68;56.68
63554;BME280;49699;48.072;7.800;2023-03-31T00:54:16;98914.13;;;13.60;57.33
63554;BME280;49699;48.072;7.800;2023-03-31T00:56:43;98914.34;;;13.46;58.37
63554;BME280;49699;48.072;7.800;2023-03-31T00:59:12;98904.13;;;13.32;59.03
63554;BME280;49699;48.072;7.800;2023-03-31T01:01:38;98892.94;;;13.18;59.61
63554;BME280;49699;48.072;7.800;2023-03-31T01:04:06;98892.09;;;13.07;60.14
63554;BME280;49699;48.072;7.800;2023-03-31T01:06:34;98867.59;;;12.97;60.52
63554;BME280;49699;48.072;7.800;2023-03-31T01:09:01;98857.88;;;12.88;60.83
63554;BME280;49699;48.072;7.800;2023-03-31T01:11:30;98841.81;;;12.81;61.15
63554;BME280;49699;48.072;7.800;2023-03-31T01:13:56;98809.41;;;12.72;61.38
63554;BME280;49699;48.072;7.800;2023-03-31T01:16:22;98818.56;;;12.67;61.65
63554;BME280;49699;48.072;7.800;2023-03-31T01:18:47;98828.63;;;12.60;62.00
63554;BME280;49699;48.072;7.800;2023-03-31T01:28:59;98804.72;;;12.42;63.00
63554;BME280;49699;48.072;7.800;2023-03-31T01:31:53;98802.34;;;12.39;63.02
63554;BME280;49699;48.072;7.800;2023-03-31T01:37:23;98794.63;;;12.38;63.09
63554;BME280;49699;48.072;7.800;2023-03-31T01:47:54;98733.78;;;12.26;63.80
63554;BME280;49699;48.072;7.800;2023-03-31T01:50:23;98718.34;;;12.23;64.04
63554;BME280;49699;48.072;7.800;2023-03-31T01:55:41;98721.28;;;12.18;64.33
63554;BME280;49699;48.072;7.800;2023-03-31T01:58:12;98720.59;;;12.16;64.51
63554;BME280;49699;48.072;7.800;2023-03-31T02:00:43;98709.44;;;12.14;64.78
63554;BME280;49699;48.072;7.800;2023-03-31T02:03:20;98696.63;;;12.11;64.85
63554;BME280;49699;48.072;7.800;2023-03-31T02:05:49;98697.69;;;12.09;64.81
63554;BME280;49699;48.072;7.800;2023-03-31T02:08:21;98697.09;;;12.05;65.29
63554;BME280;49699;48.072;7.800;2023-03-31T02:10:47;98690.31;;;12.03;65.15
63554;BME280;49699;48.072;7.800;2023-03-31T02:13:13;98687.00;;;12.01;65.34
63554;BME280;49699;48.072;7.800;2023-03-31T02:15:41;98670.78;;;11.97;65.49
63554;BME280;49699;48.072;7.800;2023-03-31T02:18:08;98663.78;;;11.98;65.67
63554;BME280;49699;48.072;7.800;2023-03-31T02:20:36;98671.72;;;11.96;65.76
63554;BME280;49699;48.072;7.800;2023-03-31T02:23:03;98654.63;;;11.92;66.00
63554;BME280;49699;48.072;7.800;2023-03-31T02:25:31;98649.63;;;11.89;66.26
63554;BME280;49699;48.072;7.800;2023-03-31T02:28:01;98636.84;;;11.86;66.11
63554;BME280;49699;48.072;7.800;2023-03-31T02:33:12;98612.06;;;11.80;66.42
63554;BME280;49699;48.072;7.800;2023-03-31T02:35:37;98613.97;;;11.78;66.45
63554;BME280;49699;48.072;7.800;2023-03-31T02:38:02;98607.28;;;11.74;66.61
63554;BME280;49699;48.072;7.800;2023-03-31T02:40:30;98609.16;;;11.72;66.83
63554;BME280;49699;48.072;7.800;2023-03-31T02:42:57;98589.38;;;11.70;66.73
63554;BME280;49699;48.072;7.800;2023-03-31T02:48:24;98555.16;;;11.63;67.19
63554;BME280;49699;48.072;7.800;2023-03-31T02:56:04;98527.75;;;11.58;67.46
63554;BME280;49699;48.072;7.800;2023-03-31T03:16:46;98438.81;;;11.40;68.10
63554;BME280;49699;48.072;7.800;2023-03-31T03:19:17;98431.09;;;11.38;68.15
63554;BME280;49699;48.072;7.800;2023-03-31T03:21:43;98413.81;;;11.37;68.59
63554;BME280;49699;48.072;7.800;2023-03-31T03:24:09;98388.94;;;11.33;69.00
63554;BME280;49699;48.072;7.800;2023-03-31T03:26:35;98375.56;;;11.27;69.44
63554;BME280;49699;48.072;7.800;2023-03-31T03:29:00;98374.97;;;11.23;69.55
63554;BME280;49699;48.072;7.800;2023-03-31T03:31:26;98356.97;;;11.20;69.64
63554;BME280;49699;48.072;7.800;2023-03-31T03:33:51;98348.22;;;11.21;69.62
63554;BME280;49699;48.072;7.800;2023-03-31T03:36:16;98337.81;;;11.21;69.67
63554;BME280;49699;48.072;7.800;2023-03-31T03:38:42;98329.28;;;11.19;69.73
63554;BME280;49699;48.072;7.800;2023-03-31T03:41:07;98307.59;;;11.19;69.80
63554;BME280;49699;48.072;7.800;2023-03-31T03:43:32;98309.28;;;11.20;69.78
63554;BME280;49699;48.072;7.800;2023-03-31T03:45:57;98313.66;;;11.19;69.86
63554;BME280;49699;48.072;7.800;2023-03-31T03:48:23;98304.88;;;11.20;69.72
63554;BME280;49699;48.072;7.800;2023-03-31T03:50:48;98312.59;;;11.22;69.81
63554;BME280;49699;48.072;7.800;2023-03-31T03:53:14;98309.88;;;11.23;69.57
63554;BME280;49699;48.072;7.800;2023-03-31T03:55:39;98307.16;;;11.25;69.66
63554;BME280;49699;48.072;7.800;2023-03-31T03:58:04;98306.19;;;11.26;69.53
63554;BME280;49699;48.072;7.800;2023-03-31T04:00:30;98285.25;;;11.27;69.51
63554;BME280;49699;48.072;7.800;2023-03-31T04:02:55;98273.88;;;11.28;69.72
63554;BME280;49699;48.072;7.800;2023-03-31T04:05:20;98261.81;;;11.27;69.55
63554;BME280;49699;48.072;7.800;2023-03-31T04:07:46;98259.19;;;11.27;69.62
63554;BME280;49699;48.072;7.800;2023-03-31T04:10:11;98257.41;;;11.28;69.72
63554;BME280;49699;48.072;7.800;2023-03-31T04:12:36;98257.53;;;11.26;70.29
63554;BME280;49699;48.072;7.800;2023-03-31T04:15:02;98266.53;;;11.22;70.24
63554;BME280;49699;48.072;7.800;2023-03-31T04:17:27;98267.84;;;11.17;70.64
63554;BME280;49699;48.072;7.800;2023-03-31T04:20:01;98273.41;;;11.12;70.88
63554;BME280;49699;48.072;7.800;2023-03-31T04:22:29;98295.44;;;11.08;71.16
63554;BME280;49699;48.072;7.800;2023-03-31T04:25:00;98293.28;;;11.02;71.68
63554;BME280;49699;48.072;7.800;2023-03-31T04:27:26;98286.91;;;10.95;71.76
63554;BME280;49699;48.072;7.800;2023-03-31T04:29:52;98280.19;;;10.92;71.89
63554;BME280;49699;48.072;7.800;2023-03-31T04:32:20;98288.66;;;10.94;72.22
63554;BME280;49699;48.072;7.800;2023-03-31T04:34:46;98300.03;;;10.93;72.02
63554;BME280;49699;48.072;7.800;2023-03-31T04:37:12;98314.03;;;10.92;72.05
63554;BME280;49699;48.072;7.800;2023-03-31T04:39:37;98339.91;;;10.94;72.83
63554;BME280;49699;48.072;7.800;2023-03-31T04:42:02;98314.59;;;10.96;72.84
63554;BME280;49699;48.072;7.800;2023-03-31T04:44:27;98305.13;;;11.06;72.55
63554;BME280;49699;48.072;7.800;2023-03-31T04:46:53;98289.03;;;11.23;71.83
63554;BME280;49699;48.072;7.800;2023-03-31T04:49:18;98289.47;;;11.39;71.25
63554;BME280;49699;48.072;7.800;2023-03-31T04:51:44;98287.44;;;11.54;70.81
63554;BME280;49699;48.072;7.800;2023-03-31T04:54:09;98309.44;;;11.61;70.77
63554;BME280;49699;48.072;7.800;2023-03-31T04:56:35;98302.47;;;11.62;70.97
63554;BME280;49699;48.072;7.800;2023-03-31T04:59:00;98314.78;;;11.60;71.10
63554;BME280;49699;48.072;7.800;2023-03-31T05:01:27;98309.94;;;11.55;71.53
63554;BME280;49699;48.072;7.800;2023-03-31T05:03:57;98298.91;;;11.52;71.94
63554;BME280;49699;48.072;7.800;2023-03-31T05:06:22;98302.84;;;11.46;72.35
63554;BME280;49699;48.072;7.800;2023-03-31T05:08:47;98311.97;;;11.40;72.52
63554;BME280;49699;48.072;7.800;2023-03-31T05:11:12;98311.50;;;11.35;73.00
63554;BME280;49699;48.072;7.800;2023-03-31T05:13:38;98315.28;;;11.31;73.37
63554;BME280;49699;48.072;7.800;2023-03-31T05:16:06;98316.50;;;11.27;73.94
63554;BME280;49699;48.072;7.800;2023-03-31T05:18:32;98308.09;;;11.24;74.74
63554;BME280;49699;48.072;7.800;2023-03-31T05:21:06;98298.72;;;11.21;75.00
63554;BME280;49699;48.072;7.800;2023-03-31T05:23:32;98272.09;;;11.18;75.48
63554;BME280;49699;48.072;7.800;2023-03-31T05:25:57;98267.13;;;11.14;75.93
63554;BME280;49699;48.072;7.800;2023-03-31T05:28:22;98242.16;;;11.12;75.89
63554;BME280;49699;48.072;7.800;2023-03-31T05:30:48;98250.91;;;11.11;76.20
63554;BME280;49699;48.072;7.800;2023-03-31T05:33:13;98225.84;;;11.10;76.50
63554;BME280;49699;48.072;7.800;2023-03-31T05:35:38;98238.28;;;11.06;76.88
63554;BME280;49699;48.072;7.800;2023-03-31T05:38:04;98229.16;;;11.01;77.41
63554;BME280;49699;48.072;7.800;2023-03-31T05:40:29;98228.78;;;10.94;77.98
63554;BME280;49699;48.072;7.800;2023-03-31T05:42:54;98227.41;;;10.90;78.18
63554;BME280;49699;48.072;7.800;2023-03-31T05:45:20;98219.00;;;10.87;78.53
63554;BME280;49699;48.072;7.800;2023-03-31T05:47:45;98240.88;;;10.84;78.32
63554;BME280;49699;48.072;7.800;2023-03-31T05:50:10;98264.44;;;10.83;79.45
63554;BME280;49699;48.072;7.800;2023-03-31T05:52:35;98309.84;;;10.78;79.86
63554;BME280;49699;48.072;7.800;2023-03-31T05:55:01;98345.00;;;10.73;80.95
63554;BME280;49699;48.072;7.800;2023-03-31T05:57:26;98393.44;;;10.63;82.39
63554;BME280;49699;48.072;7.800;2023-03-31T05:59:52;98433.75;;;10.57;83.94
63554;BME280;49699;48.072;7.800;2023-03-31T06:02:17;98410.06;;;10.49;84.53
63554;BME280;49699;48.072;7.800;2023-03-31T06:04:42;98432.28;;;10.42;84.95
63554;BME280;49699;48.072;7.800;2023-03-31T06:07:08;98431.69;;;10.38;84.44
63554;BME280;49699;48.072;7.800;2023-03-31T06:09:34;98445.28;;;10.42;83.75
63554;BME280;49699;48.072;7.800;2023-03-31T06:11:59;98450.03;;;10.48;82.45
63554;BME280;49699;48.072;7.800;2023-03-31T06:14:25;98462.63;;;10.54;81.47
63554;BME280;49699;48.072;7.800;2023-03-31T06:16:51;98471.34;;;10.53;81.37
63554;BME280;49699;48.072;7.800;2023-03-31T06:19:16;98474.06;;;10.52;81.72
63554;BME280;49699;48.072;7.800;2023-03-31T06:21:42;98467.31;;;10.49;81.65
63554;BME280;49699;48.072;7.800;2023-03-31T06:24:07;98459.72;;;10.46;81.40
63554;BME280;49699;48.072;7.800;2023-03-31T06:26:33;98399.28;;;10.42;81.41
63554;BME280;49699;48.072;7.800;2023-03-31T06:28:58;98426.34;;;10.40;81.82
63554;BME280;49699;48.072;7.800;2023-03-31T06:31:24;98410.88;;;10.38;81.66
63554;BME280;49699;48.072;7.800;2023-03-31T06:33:49;98401.41;;;10.37;82.02
63554;BME280;49699;48.072;7.800;2023-03-31T06:36:16;98417.25;;;10.34;82.09
63554;BME280;49699;48.072;7.800;2023-03-31T06:38:42;98430.13;;;10.36;82.42
63554;BME280;49699;48.072;7.800;2023-03-31T06:41:08;98435.34;;;10.36;82.34
63554;BME280;49699;48.072;7.800;2023-03-31T06:43:33;98438.88;;;10.35;82.35
63554;BME280;49699;48.072;7.800;2023-03-31T06:45:58;98445.75;;;10.36;82.33
63554;BME280;49699;48.072;7.800;2023-03-31T06:48:24;98443.84;;;10.38;82.11
63554;BME280;49699;48.072;7.800;2023-03-31T06:50:50;98436.88;;;10.38;82.75
63554;BME280;49699;48.072;7.800;2023-03-31T06:53:15;98427.63;;;10.34;83.07
63554;BME280;49699;48.072;7.800;2023-03-31T06:55:40;98421.94;;;10.29;83.88
63554;BME280;49699;48.072;7.800;2023-03-31T06:58:06;98404.78;;;10.27;83.81
63554;BME280;49699;48.072;7.800;2023-03-31T07:00:31;98393.03;;;10.21;83.71
63554;BME280;49699;48.072;7.800;2023-03-31T07:02:57;98389.75;;;10.19;83.81
63554;BME280;49699;48.072;7.800;2023-03-31T07:05:22;98380.31;;;10.29;83.76
63554;BME280;49699;48.072;7.800;2023-03-31T07:07:54;98391.44;;;10.55;82.90
63554;BME280;49699;48.072;7.800;2023-03-31T07:10:20;98391.13;;;10.82;82.04
63554;BME280;49699;48.072;7.800;2023-03-31T07:12:45;98366.56;;;11.08;80.88
63554;BME280;49699;48.072;7.800;2023-03-31T07:15:11;98383.72;;;11.33;79.10
63554;BME280;49699;48.072;7.800;2023-03-31T07:17:36;98376.13;;;11.53;78.16
63554;BME280;49699;48.072;7.800;2023-03-31T07:20:06;98371.03;;;11.73;77.15
63554;BME280;49699;48.072;7.800;2023-03-31T07:22:39;98364.13;;;11.95;76.56
63554;BME280;49699;48.072;7.800;2023-03-31T07:25:05;98368.00;;;12.11;75.49
63554;BME280;49699;48.072;7.800;2023-03-31T07:27:31;98367.34;;;12.30;74.62
63554;BME280;49699;48.072;7.800;2023-03-31T07:29:56;98368.69;;;12.45;73.93
63554;BME280;49699;48.072;7.800;2023-03-31T07:32:21;98380.94;;;12.66;73.28
63554;BME280;49699;48.072;7.800;2023-03-31T07:34:47;98380.22;;;12.84;72.25
63554;BME280;49699;48.072;7.800;2023-03-31T07:37:12;98374.41;;;13.02;71.62
63554;BME280;49699;48.072;7.800;2023-03-31T07:39:38;98363.41;;;13.19;71.00
63554;BME280;49699;48.072;7.800;2023-03-31T07:42:03;98378.31;;;13.38;70.40
63554;BME280;49699;48.072;7.800;2023-03-31T07:44:28;98370.94;;;13.52;69.36
63554;BME280;49699;48.072;7.800;2023-03-31T07:46:53;98368.91;;;13.66;68.91
63554;BME280;49699;48.072;7.800;2023-03-31T07:49:19;98361.50;;;13.80;68.35
63554;BME280;49699;48.072;7.800;2023-03-31T07:51:45;98370.66;;;13.96;67.55
63554;BME280;49699;48.072;7.800;2023-03-31T07:54:10;98363.09;;;14.12;66.95
63554;BME280;49699;48.072;7.800;2023-03-31T07:56:35;98371.22;;;14.28;66.41
63554;BME280;49699;48.072;7.800;2023-03-31T07:59:01;98368.09;;;14.44;65.78
63554;BME280;49699;48.072;7.800;2023-03-31T08:01:27;98361.47;;;14.59;65.00
63554;BME280;49699;48.072;7.800;2023-03-31T08:03:53;98360.47;;;14.70;64.58
63554;BME280;49699;48.072;7.800;2023-03-31T08:06:20;98368.34;;;14.79;64.32
63554;BME280;49699;48.072;7.800;2023-03-31T08:08:46;98357.81;;;14.99;63.73
63554;BME280;49699;48.072;7.800;2023-03-31T08:11:11;98355.97;;;15.09;62.74
63554;BME280;49699;48.072;7.800;2023-03-31T08:13:36;98375.69;;;15.13;62.56
63554;BME280;49699;48.072;7.800;2023-03-31T08:16:02;98368.53;;;15.15;62.45
63554;BME280;49699;48.072;7.800;2023-03-31T08:18:27;98364.59;;;15.28;62.12
63554;BME280;49699;48.072;7.800;2023-03-31T08:20:53;98370.84;;;15.55;61.60
63554;BME280;49699;48.072;7.800;2023-03-31T08:23:18;98369.56;;;15.69;60.83
63554;BME280;49699;48.072;7.800;2023-03-31T08:25:43;98382.19;;;15.55;60.97
63554;BME280;49699;48.072;7.800;2023-03-31T08:28:08;98382.13;;;15.28;60.57
63554;BME280;49699;48.072;7.800;2023-03-31T08:30:38;98380.00;;;15.04;60.94
63554;BME280;49699;48.072;7.800;2023-03-31T08:33:04;98386.22;;;14.93;60.55
63554;BME280;49699;48.072;7.800;2023-03-31T08:35:29;98377.13;;;14.98;60.28
63554;BME280;49699;48.072;7.800;2023-03-31T08:37:54;98394.06;;;15.03;60.05
63554;BME280;49699;48.072;7.800;2023-03-31T08:40:22;98384.25;;;15.15;57.69
63554;BME280;49699;48.072;7.800;2023-03-31T08:42:48;98383.28;;;15.16;55.44
63554;BME280;49699;48.072;7.800;2023-03-31T08:45:30;98382.31;;;15.07;55.53
63554;BME280;49699;48.072;7.800;2023-03-31T08:48:04;98372.28;;;14.93;54.45
63554;BME280;49699;48.072;7.800;2023-03-31T08:50:31;98374.09;;;14.92;54.14
63554;BME280;49699;48.072;7.800;2023-03-31T08:53:02;98365.78;;;15.07;53.25
63554;BME280;49699;48.072;7.800;2023-03-31T08:55:39;98356.88;;;15.27;52.23
63554;BME280;49699;48.072;7.800;2023-03-31T08:58:13;98371.72;;;15.55;50.91
63554;BME280;49699;48.072;7.800;2023-03-31T09:00:45;98369.34;;;15.52;50.57
63554;BME280;49699;48.072;7.800;2023-03-31T09:03:22;98373.78;;;15.42;49.87
63554;BME280;49699;48.072;7.800;2023-03-31T09:06:06;98366.94;;;15.32;49.42
63554;BME280;49699;48.072;7.800;2023-03-31T09:08:36;98353.06;;;15.21;49.71
63554;BME280;49699;48.072;7.800;2023-03-31T09:11:06;98336.66;;;15.10;49.66
63554;BME280;49699;48.072;7.800;2023-03-31T09:13:54;98344.28;;;15.03;49.81
63554;BME280;49699;48.072;7.800;2023-03-31T09:18:50;98335.88;;;15.00;50.04
63554;BME280;49699;48.072;7.800;2023-03-31T09:21:32;98317.53;;;15.00;49.52
63554;BME280;49699;48.072;7.800;2023-03-31T09:24:04;98315.34;;;14.95;49.57
63554;BME280;49699;48.072;7.800;2023-03-31T09:26:41;98306.53;;;14.96;49.87
63554;BME280;49699;48.072;7.800;2023-03-31T09:29:18;98306.09;;;15.01;49.89
63554;BME280;49699;48.072;7.800;2023-03-31T09:31:45;98292.13;;;15.10;50.02
63554;BME280;49699;48.072;7.800;2023-03-31T09:34:12;98279.94;;;15.46;49.51
63554;BME280;49699;48.072;7.800;2023-03-31T09:36:38;98272.75;;;15.93;48.73
63554;BME280;49699;48.072;7.800;2023-03-31T09:39:03;98285.22;;;16.35;48.00
63554;BME280;49699;48.072;7.800;2023-03-31T09:41:29;98273.91;;;16.78;46.84
63554;BME280;49699;48.072;7.800;2023-03-31T09:43:55;98271.31;;;17.20;46.21
63554;BME280;49699;48.072;7.800;2023-03-31T09:46:25;98261.06;;;17.51;45.55
63554;BME280;49699;48.072;7.800;2023-03-31T09:51:26;98252.28;;;17.92;44.41
63554;BME280;49699;48.072;7.800;2023-03-31T09:54:18;98249.00;;;18.15;43.99
63554;BME280;49699;48.072;7.800;2023-03-31T09:56:45;98263.81;;;18.32;42.52
63554;BME280;49699;48.072;7.800;2023-03-31T10:02:50;98253.78;;;17.87;40.47
63554;BME280;49699;48.072;7.800;2023-03-31T10:04:56;98283.88;;;17.42;41.08
63554;BME280;49699;48.072;7.800;2023-03-31T10:07:22;98285.13;;;17.22;41.26
63554;BME280;49699;48.072;7.800;2023-03-31T10:09:47;98262.53;;;17.37;41.23
63554;BME280;49699;48.072;7.800;2023-03-31T10:12:16;98275.78;;;17.69;40.58
63554;BME280;49699;48.072;7.800;2023-03-31T10:14:47;98264.00;;;18.06;39.74
63554;BME280;49699;48.072;7.800;2023-03-31T10:17:14;98264.47;;;18.18;38.75
63554;BME280;49699;48.072;7.800;2023-03-31T10:19:42;98279.44;;;18.01;38.82
63554;BME280;49699;48.072;7.800;2023-03-31T10:24:45;98266.13;;;18.11;38.64
63554;BME280;49699;48.072;7.800;2023-03-31T10:27:19;98270.25;;;18.05;38.33
63554;BME280;49699;48.072;7.800;2023-03-31T10:29:45;98252.81;;;18.04;38.74
63554;BME280;49699;48.072;7.800;2023-03-31T10:32:17;98257.88;;;17.73;38.96
63554;BME280;49699;48.072;7.800;2023-03-31T10:34:46;98259.50;;;17.24;39.70
63554;BME280;49699;48.072;7.800;2023-03-31T10:37:13;98255.53;;;16.78;40.84
63554;BME280;49699;48.072;7.800;2023-03-31T10:39:40;98259.19;;;16.41;41.84
63554;BME280;49699;48.072;7.800;2023-03-31T10:42:07;98303.47;;;16.18;42.61
63554;BME280;49699;48.072;7.800;2023-03-31T10:44:34;98330.03;;;15.97;44.01
63554;BME280;49699;48.072;7.800;2023-03-31T10:49:39;98325.03;;;14.75;47.25
63554;BME280;49699;48.072;7.800;2023-03-31T10:52:13;98298.22;;;14.15;49.66
63554;BME280;49699;48.072;7.800;2023-03-31T10:54:45;98297.09;;;13.60;52.76
63554;BME280;49699;48.072;7.800;2023-03-31T10:57:10;98266.50;;;13.01;55.63
63554;BME280;49699;48.072;7.800;2023-03-31T10:59:39;98269.03;;;12.51;57.42
63554;BME280;49699;48.072;7.800;2023-03-31T11:04:44;98315.13;;;11.77;61.37
63554;BME280;49699;48.072;7.800;2023-03-31T11:09:48;98330.81;;;11.10;65.59
63554;BME280;49699;48.072;7.800;2023-03-31T11:12:23;98340.16;;;11.02;66.85
63554;BME280;49699;48.072;7.800;2023-03-31T11:14:53;98313.78;;;11.06;67.06
63554;BME280;49699;48.072;7.800;2023-03-31T11:22:47;98265.59;;;11.12;67.97
63554;BME280;49699;48.072;7.800;2023-03-31T11:25:26;98272.34;;;11.14;67.47
63554;BME280;49699;48.072;7.800;2023-03-31T11:30:39;98252.31;;;11.80;65.40
63554;BME280;49699;48.072;7.800;2023-03-31T11:50:56;98207.72;;;14.22;56.64
63554;BME280;49699;48.072;7.800;2023-03-31T11:53:24;98205.25;;;14.31;54.97
63554;BME280;49699;48.072;7.800;2023-03-31T11:55:52;98189.66;;;14.48;52.26
63554;BME280;49699;48.072;7.800;2023-03-31T12:00:51;98194.78;;;14.31;48.89
63554;BME280;49699;48.072;7.800;2023-03-31T12:03:21;98197.16;;;14.14;48.37
63554;BME280;49699;48.072;7.800;2023-03-31T12:05:52;98188.38;;;13.96;48.25
63554;BME280;49699;48.072;7.800;2023-03-31T12:08:25;98187.00;;;13.82;48.79
63554;BME280;49699;48.072;7.800;2023-03-31T12:10:53;98214.41;;;13.78;49.06
63554;BME280;49699;48.072;7.800;2023-03-31T12:15:56;98171.72;;;13.87;47.89
63554;BME280;49699;48.072;7.800;2023-03-31T12:18:25;98158.78;;;13.96;47.49
63554;BME280;49699;48.072;7.800;2023-03-31T12:20:57;98145.41;;;14.08;47.26
63554;BME280;49699;48.072;7.800;2023-03-31T12:23:28;98141.31;;;14.43;46.87
63554;BME280;49699;48.072;7.800;2023-03-31T12:28:33;98144.69;;;15.08;46.49
63554;BME280;49699;48.072;7.800;2023-03-31T12:31:02;98130.25;;;15.04;46.50
63554;BME280;49699;48.072;7.800;2023-03-31T12:36:07;98146.66;;;14.78;47.08
63554;BME280;49699;48.072;7.800;2023-03-31T12:41:31;98124.88;;;14.13;48.57
63554;BME280;49699;48.072;7.800;2023-03-31T12:46:35;98118.34;;;13.71;50.29
63554;BME280;49699;48.072;7.800;2023-03-31T12:49:10;98112.44;;;13.59;51.39
63554;BME280;49699;48.072;7.800;2023-03-31T12:59:32;98133.78;;;13.54;52.96
63554;BME280;49699;48.072;7.800;2023-03-31T13:04:39;98116.72;;;13.60;53.57
63554;BME280;49699;48.072;7.800;2023-03-31T13:07:11;98131.28;;;13.72;52.90
63554;BME280;49699;48.072;7.800;2023-03-31T13:09:38;98117.75;;;13.86;51.64
63554;BME280;49699;48.072;7.800;2023-03-31T13:12:07;98116.22;;;14.03;50.94
63554;BME280;49699;48.072;7.800;2023-03-31T13:14:37;98118.50;;;14.16;50.04
63554;BME280;49699;48.072;7.800;2023-03-31T13:17:17;98104.28;;;14.28;48.33
63554;BME280;49699;48.072;7.800;2023-03-31T13:19:44;98136.25;;;14.32;47.50
63554;BME280;49699;48.072;7.800;2023-03-31T13:22:28;98173.56;;;14.24;49.42
63554;BME280;49699;48.072;7.800;2023-03-31T13:25:07;98206.28;;;13.91;53.69
63554;BME280;49699;48.072;7.800;2023-03-31T13:27:47;98201.56;;;13.27;57.42
63554;BME280;49699;48.072;7.800;2023-03-31T13:33:13;98247.25;;;12.00;64.46
63554;BME280;49699;48.072;7.800;2023-03-31T13:35:40;98253.19;;;11.47;66.27
63554;BME280;49699;48.072;7.800;2023-03-31T13:38:18;98265.25;;;11.05;68.65
63554;BME280;49699;48.072;7.800;2023-03-31T13:40:59;98254.25;;;10.68;70.78
63554;BME280;49699;48.072;7.800;2023-03-31T13:53:47;98179.03;;;10.21;70.23
63554;BME280;49699;48.072;7.800;2023-03-31T14:06:39;98170.41;;;10.31;69.66
63554;BME280;49699;48.072;7.800;2023-03-31T14:09:51;98169.34;;;10.45;69.61
63554;BME280;49699;48.072;7.800;2023-03-31T14:11:51;98171.22;;;10.65;69.12
63554;BME280;49699;48.072;7.800;2023-03-31T14:14:17;98178.41;;;10.84;68.72
63554;BME280;49699;48.072;7.800;2023-03-31T14:17:00;98188.91;;;11.05;68.06
63554;BME280;49699;48.072;7.800;2023-03-31T14:37:11;98170.47;;;12.34;65.79
63554;BME280;49699;48.072;7.800;2023-03-31T14:39:45;98161.16;;;12.21;66.05
63554;BME280;49699;48.072;7.800;2023-03-31T14:42:15;98161.50;;;12.06;66.36
63554;BME280;49699;48.072;7.800;2023-03-31T14:44:41;98145.81;;;11.97;66.91
63554;BME280;49699;48.072;7.800;2023-03-31T14:47:12;98173.47;;;11.88;66.59
63554;BME280;49699;48.072;7.800;2023-03-31T14:49:37;98166.41;;;11.79;66.66
63554;BME280;49699;48.072;7.800;2023-03-31T14:52:14;98160.97;;;11.71;67.00
63554;BME280;49699;48.072;7.800;2023-03-31T14:54:39;98156.25;;;11.65;67.36
63554;BME280;49699;48.072;7.800;2023-03-31T14:57:06;98161.63;;;11.63;67.21
63554;BME280;49699;48.072;7.800;2023-03-31T14:59:32;98167.91;;;11.61;67.44
63554;BME280;49699;48.072;7.800;2023-03-31T15:01:59;98171.59;;;11.58;67.25
63554;BME280;49699;48.072;7.800;2023-03-31T15:04:27;98176.78;;;11.58;66.93
63554;BME280;49699;48.072;7.800;2023-03-31T15:06:53;98186.16;;;11.61;66.73
63554;BME280;49699;48.072;7.800;2023-03-31T15:09:20;98181.63;;;11.63;66.78
63554;BME280;49699;48.072;7.800;2023-03-31T15:11:47;98183.03;;;11.67;66.36
63554;BME280;49699;48.072;7.800;2023-03-31T15:14:17;98186.22;;;11.70;66.23
63554;BME280;49699;48.072;7.800;2023-03-31T15:16:43;98180.63;;;11.75;66.15
63554;BME280;49699;48.072;7.800;2023-03-31T15:19:15;98188.22;;;11.78;65.90
63554;BME280;49699;48.072;7.800;2023-03-31T15:21:42;98189.75;;;11.80;65.65
63554;BME280;49699;48.072;7.800;2023-03-31T15:24:12;98185.94;;;11.85;65.50
63554;BME280;49699;48.072;7.800;2023-03-31T15:26:39;98183.06;;;11.88;65.75
63554;BME280;49699;48.072;7.800;2023-03-31T15:29:29;98181.03;;;11.91;65.45
63554;BME280;49699;48.072;7.800;2023-03-31T15:31:56;98180.66;;;11.96;65.31
63554;BME280;49699;48.072;7.800;2023-03-31T15:34:26;98177.94;;;11.97;65.29
63554;BME280;49699;48.072;7.800;2023-03-31T15:36:54;98174.38;;;11.98;65.19
63554;BME280;49699;48.072;7.800;2023-03-31T15:39:19;98170.25;;;11.96;65.36
63554;BME280;49699;48.072;7.800;2023-03-31T15:41:46;98172.84;;;11.96;65.13
63554;BME280;49699;48.072;7.800;2023-03-31T15:47:23;98169.66;;;11.92;65.02
63554;BME280;49699;48.072;7.800;2023-03-31T15:49:52;98163.75;;;11.90;64.98
63554;BME280;49699;48.072;7.800;2023-03-31T15:52:23;98158.03;;;11.96;65.19